メインページ
METAR-TAF:

METAR-TAF

空港 :

ウラジオストク国際空港

ウラジオストク, ロシア

緯度: 43-07N, 経度: 131-56E, 海抜: 184m

現時点の気象観測

当レポートは34分前の11:30(UTC)に作成
北東の風 6kt
気温 10°C
湿度 76%
気圧 1021 hPa
視程10km以上

METAR: UHWW 201130Z 04003MPS 9999 NSC 10/06 Q1021 R07R/0///70 NOSIG RMK QFE765

時間: 22:04 (12:04 UTC)

予報

当レポートは1時間4分前の11:00(UTC)に作成
予報は20日の 12時(UTC)から 21日の 12時(UTC)まで有効
東/南東の風 6kt
視程10km以上
20日の 12時(UTC)から 20日の 14時(UTC)まで一時的に
視程: 4000m
高度1100ftの雲は散在している
20日の 1400時(UTC)から
南/南西の風 6kt
視程: 3100m
高度1100ftの千切れ雲あり
21日の 00時(UTC)から 21日の 02時(UTC)まで徐々に
視程: 5000m
高度2000ftの雲は散在している
煙霧
21日の 04時(UTC)から 21日の 05時(UTC)まで徐々に
視程10km以上
高度3000ftの雲は散在している
21日の 09時(UTC)から 21日の 11時(UTC)まで徐々に
視程: 5000m
高度2000ftの千切れ雲あり
煙霧

TAF: UHWW 201100Z 2012/2112 12003MPS 9999 NSC TEMPO 2012/2014 4000 BR SCT011 FM201400 20003MPS 3100 BR BKN011 BECMG 2100/2102 5000 HZ SCT020 BECMG 2104/2105 9999 NSW SCT030 BECMG 2109/2111 5000 HZ BKN020

4,000以上の空港の気象観測と天気予報(METAR報とTAF報)

利用可能な観測所は地図上に黄色い丸と赤い丸で示す。

丸の上にカーソルを重ねると観測所名を参照できる。

次にクリックすると気象観測と天気予報を参照できる。

マップの切り替え:黒色「×」印の緑ボタンをクリックして拡大、「-」印の緑ボタンをクリックして縮小、緑色の三角印をクリックして隣りの地図に切り替え


METAR-TAF: